Turks and Caicos Islands Weather

[source: ADDS]
METAR
MBPV 242200Z 2500/2600 16008KT 9999 SCT020 BKN220 BECMG 2513/2515 21014KT SCT020 MBGT 251000Z 2512/2612 20010KT 9999 SCT018 BKN220 PROB30 TEMPO 2600/2606 26015KT 9000 SHRA SCT015CB BKN060 BKN220 PROB30 TEMPO 2606/2612 22010G20KT 8000 SHRA SCT012CB BKN040 BKN220 TAF
MBPV 242200Z 2500/2600 16008KT 9999 SCT020 BKN220 BECMG 2513/2515 21014KT SCT020 =
MBGT 251000Z 2512/2612 20010KT 9999 SCT018 BKN220 PROB30 TEMPO 2600/2606 26015KT 9000 SHRA SCT015CB BKN060 BKN220 PROB30 TEMPO 2606/2612 22010G20KT 8000 SHRA SCT012CB BKN040 BKN220 =
SR / SS: 10:49 / 22:16 UTC (MBPV 2014-10-25)
E-mail Print PDF
Weather